»·PEaware :: N20791 KALW-8W5

N20791 :: KALW-8W5

FLIGHT INFORMATION

Flight Status: Arrived
Operator: Privately registered:
United States
More flights under this callsign
Pilot: Russell T. (852)
Aircraft: CESSNA 182 SKYLANE
(C182)
More flights by this aircraft type
Origin: KALW Walla Walla Regl
United States
Destination: 8W5 Apex Airpark
United States
More flights between these airports :: More routes between these airports
Route: LYLES YKM V4 SEA WUMO4
File this flight plan on PilotEdge
Remarks:
Altitude:
(Current/Filed)
10,500ft
Speed:
(Current/Filed)
120kts
Departed: 20-May-20 05:38 PM
Arrived: 20-May-20 07:19 PM
Distance/Time
Traveled:
205nm/1:41
Distance/Time
To Go:
Arrived

Flight Plot

Page will automatically refresh every two minutes.

Flight plan parsing failed; only flown route is shown


Map Options




Map Legend


Flown Route
Filed Route
Departure Airport
Arrival Airport
Navaid (VOR, NDB)
Fix

Horizontal Profiles

Position Reports

Time Latitude Longitude Heading Altitude Ground
Speed
20-May-20 17:33 46.091382 -118.280739 159 1194ft 1kts
20-May-20 17:33 46.094624 -118.279423 36 1194ft 9kts
20-May-20 17:34 46.097915 -118.276111 0 1194ft 0kts
20-May-20 17:36 46.097962 -118.276111 0 1194ft 1kts
20-May-20 17:36 46.098331 -118.277988 216 1194ft 16kts
20-May-20 17:37 46.083729 -118.295460 229 1675ft 92kts
20-May-20 17:38 46.072080 -118.325534 289 2582ft 99kts
20-May-20 17:39 46.082608 -118.361508 294 3521ft 95kts
20-May-20 17:40 46.092894 -118.394823 293 4305ft 88kts
20-May-20 17:41 46.103389 -118.430209 297 4887ft 105kts
20-May-20 17:42 46.115112 -118.469817 296 5543ft 104kts
20-May-20 17:43 46.125574 -118.509282 296 6307ft 105kts
20-May-20 17:44 46.136412 -118.549026 296 7025ft 113kts
20-May-20 17:45 46.148431 -118.594038 296 7438ft 136kts
20-May-20 17:46 46.163324 -118.646741 301 7443ft 142kts
20-May-20 17:47 46.178033 -118.699661 293 7488ft 142kts
20-May-20 17:48 46.190440 -118.754327 292 7503ft 144kts
20-May-20 17:49 46.201825 -118.805876 294 8019ft 115kts
20-May-20 17:50 46.211572 -118.849575 295 8505ft 126kts
20-May-20 17:51 46.223053 -118.901714 294 8503ft 140kts
20-May-20 17:52 46.234898 -118.955726 294 8500ft 141kts
20-May-20 17:53 46.246904 -119.010428 293 8490ft 149kts
20-May-20 17:54 46.260125 -119.070747 293 8503ft 162kts
20-May-20 17:55 46.273922 -119.133427 294 8500ft 164kts
20-May-20 17:56 46.288602 -119.196181 294 8500ft 164kts
20-May-20 17:57 46.303149 -119.258875 294 8500ft 164kts
20-May-20 17:58 46.317671 -119.321682 294 8500ft 164kts
20-May-20 17:59 46.332142 -119.384453 294 8500ft 164kts
20-May-20 18:00 46.346593 -119.447316 293 8500ft 164kts
20-May-20 18:01 46.361006 -119.510198 293 8500ft 164kts
20-May-20 18:02 46.375352 -119.572971 293 8500ft 164kts
20-May-20 18:03 46.389706 -119.635970 293 8500ft 164kts
20-May-20 18:04 46.404025 -119.698998 293 8500ft 164kts
20-May-20 18:05 46.418304 -119.762028 293 8500ft 164kts
20-May-20 18:06 46.432547 -119.825094 293 8500ft 164kts
20-May-20 18:07 46.446807 -119.888414 293 8500ft 164kts
20-May-20 18:08 46.460990 -119.951587 293 8500ft 164kts
20-May-20 18:09 46.475132 -120.014766 293 8500ft 164kts
20-May-20 18:10 46.489215 -120.077868 293 8500ft 164kts
20-May-20 18:11 46.503303 -120.141182 293 8500ft 164kts
20-May-20 18:12 46.517362 -120.204556 293 8500ft 164kts
20-May-20 18:13 46.531361 -120.267851 293 8500ft 164kts
20-May-20 18:14 46.545389 -120.331467 293 8500ft 164kts
20-May-20 18:15 46.558946 -120.393327 293 8731ft 147kts
20-May-20 18:16 46.569084 -120.440197 299 9808ft 98kts
20-May-20 18:17 46.583795 -120.472833 316 10325ft 107kts
20-May-20 18:18 46.600150 -120.507104 316 10916ft 104kts
20-May-20 18:19 46.622146 -120.552574 312 10344ft 158kts
20-May-20 18:20 46.646134 -120.603336 313 10487ft 143kts
20-May-20 18:21 46.669428 -120.652125 312 10504ft 148kts
20-May-20 18:22 46.693016 -120.701770 312 10501ft 149kts
20-May-20 18:23 46.716711 -120.751711 312 10501ft 149kts
20-May-20 18:24 46.740426 -120.801747 312 10500ft 149kts
20-May-20 18:25 46.764094 -120.851733 312 10500ft 149kts
20-May-20 18:26 46.787764 -120.901837 312 10500ft 149kts
20-May-20 18:27 46.811414 -120.952008 312 10501ft 149kts
20-May-20 18:28 46.835043 -121.002216 312 10500ft 150kts
20-May-20 18:29 46.858633 -121.052406 312 10500ft 150kts
20-May-20 18:30 46.882240 -121.102785 312 10500ft 150kts
20-May-20 18:31 46.905777 -121.153082 312 10500ft 150kts
20-May-20 18:32 46.929304 -121.203442 312 10500ft 150kts
20-May-20 18:33 46.952828 -121.253888 312 10500ft 150kts
20-May-20 18:34 46.976345 -121.304410 312 10500ft 150kts
20-May-20 18:35 46.999825 -121.354946 312 10500ft 150kts
20-May-20 18:36 47.023360 -121.405693 312 10500ft 150kts
20-May-20 18:37 47.046789 -121.456303 312 10500ft 150kts
20-May-20 18:38 47.070256 -121.507090 312 10500ft 150kts
20-May-20 18:39 47.093677 -121.557874 312 10500ft 150kts
20-May-20 18:40 47.117081 -121.608677 312 10500ft 150kts
20-May-20 18:41 47.140452 -121.659584 312 10500ft 150kts
20-May-20 18:42 47.163793 -121.710489 312 10500ft 150kts
20-May-20 18:43 47.187145 -121.761508 312 10500ft 150kts
20-May-20 18:44 47.210445 -121.812505 312 10500ft 150kts
20-May-20 18:45 47.233735 -121.863564 311 10500ft 150kts
20-May-20 18:46 47.257054 -121.914764 311 10500ft 150kts
20-May-20 18:47 47.280305 -121.965973 311 10500ft 150kts
20-May-20 18:48 47.303570 -122.017344 311 10500ft 150kts
20-May-20 18:49 47.326783 -122.068690 311 10500ft 150kts
20-May-20 18:50 47.350000 -122.120078 311 10500ft 150kts
20-May-20 18:51 47.373222 -122.171472 311 10500ft 150kts
20-May-20 18:52 47.396364 -122.222893 311 10500ft 150kts
20-May-20 18:53 47.419542 -122.274477 311 10500ft 150kts
20-May-20 18:54 47.442446 -122.326412 308 10500ft 151kts
20-May-20 18:55 47.464322 -122.379627 309 10500ft 151kts
20-May-20 18:56 47.486286 -122.432840 309 10500ft 151kts
20-May-20 18:57 47.508238 -122.486089 309 10500ft 151kts
20-May-20 18:58 47.530144 -122.539324 309 10500ft 151kts
20-May-20 18:59 47.552043 -122.592646 309 10500ft 151kts
20-May-20 19:00 47.573919 -122.646011 309 10500ft 151kts
20-May-20 19:01 47.594026 -122.701656 296 10175ft 162kts
20-May-20 19:02 47.606654 -122.756859 296 9183ft 152kts
20-May-20 19:03 47.621974 -122.817214 296 8186ft 159kts
20-May-20 19:04 47.607332 -122.871513 202 7155ft 158kts
20-May-20 19:05 47.566459 -122.884206 182 6175ft 149kts
20-May-20 19:06 47.525147 -122.894097 182 5179ft 151kts
20-May-20 19:07 47.484536 -122.894412 132 4144ft 142kts
20-May-20 19:08 47.477759 -122.840128 89 3161ft 136kts
20-May-20 19:10 47.482308 -122.785956 64 2499ft 121kts
20-May-20 19:11 47.501068 -122.752429 9 2513ft 111kts
20-May-20 19:12 47.530005 -122.749005 4 2489ft 81kts
20-May-20 19:13 47.552292 -122.747311 4 2112ft 94kts
20-May-20 19:14 47.574935 -122.745137 4 1996ft 68kts
20-May-20 19:15 47.595458 -122.743073 4 1708ft 79kts
20-May-20 19:16 47.614887 -122.741039 5 1582ft 70kts
20-May-20 19:17 47.634937 -122.738815 4 1327ft 69kts
20-May-20 19:18 47.654538 -122.733756 11 534ft 59kts
20-May-20 19:19 47.658096 -122.732860 11 528ft 0kts
20-May-20 19:20 47.658097 -122.732859 11 528ft 0kts
20-May-20 19:21 47.658098 -122.732859 11 528ft 0kts
20-May-20 19:22 47.658099 -122.732859 11 528ft 0kts
20-May-20 19:23 47.658100 -122.732859 11 528ft 0kts
20-May-20 19:24 47.658100 -122.732858 11 528ft 0kts
20-May-20 19:24 47.658101 -122.732858 11 528ft 0kts
20-May-20 19:26 47.658102 -122.732858 11 528ft 0kts
20-May-20 19:27 47.658102 -122.732858 11 528ft 0kts
20-May-20 19:27 47.658103 -122.732858 11 528ft 0kts
20-May-20 19:28 47.658104 -122.732857 11 528ft 0kts
20-May-20 19:30 47.658104 -122.732857 11 528ft 0kts
20-May-20 19:30 47.658105 -122.732857 11 528ft 0kts
20-May-20 19:31 47.658106 -122.732857 11 528ft 0kts
20-May-20 19:32 47.658106 -122.732857 11 528ft 0kts

Navigation Log

Ident Type
Flight plan parsing failed, navigation log unavailable